createdAt,value
2019-05-15T00:00:50.894Z,11.80
2019-05-15T00:03:20.443Z,11.70
2019-05-15T00:05:50.034Z,11.70
2019-05-15T00:08:19.279Z,11.60
2019-05-15T00:10:48.600Z,11.60
2019-05-15T00:13:18.520Z,11.60
2019-05-15T00:15:48.208Z,11.50
2019-05-15T00:18:18.508Z,11.50
2019-05-15T00:20:49.558Z,11.50
2019-05-15T00:23:19.091Z,11.50
2019-05-15T00:25:48.867Z,11.40
2019-05-15T00:28:18.592Z,11.40
2019-05-15T00:30:48.197Z,11.40
2019-05-15T00:33:19.305Z,11.30
2019-05-15T00:35:48.678Z,11.30
2019-05-15T00:38:18.854Z,11.20
2019-05-15T00:40:49.612Z,11.20
2019-05-15T00:43:19.203Z,11.20
2019-05-15T00:45:48.973Z,11.20
2019-05-15T00:48:18.670Z,11.20
2019-05-15T00:50:48.547Z,11.20
2019-05-15T00:53:19.599Z,11.20
2019-05-15T00:55:49.122Z,11.20
2019-05-15T00:58:20.010Z,11.20
2019-05-15T01:00:49.553Z,11.20
2019-05-15T01:03:18.892Z,11.10
2019-05-15T01:05:48.284Z,11.10
2019-05-15T01:08:19.134Z,11.10
2019-05-15T01:10:48.831Z,11.20
2019-05-15T01:13:18.971Z,11.10
2019-05-15T01:15:49.110Z,11.10
2019-05-15T01:18:18.994Z,11.10
2019-05-15T01:20:49.323Z,11.10
2019-05-15T01:23:18.927Z,11.10
2019-05-15T01:25:48.334Z,11.00
2019-05-15T01:28:18.484Z,11.10
2019-05-15T01:30:48.692Z,11.00
2019-05-15T01:33:19.008Z,11.00
2019-05-15T01:35:48.809Z,11.00
2019-05-15T01:38:18.856Z,10.90
2019-05-15T01:40:48.762Z,10.90
2019-05-15T01:43:18.711Z,10.90
2019-05-15T01:45:48.465Z,10.90
2019-05-15T01:48:18.983Z,10.80
2019-05-15T01:50:49.304Z,10.80
2019-05-15T01:53:18.883Z,10.70
2019-05-15T01:55:48.475Z,10.70
2019-05-15T01:58:18.692Z,10.70
2019-05-15T02:00:48.486Z,10.70
2019-05-15T02:03:18.357Z,10.70
2019-05-15T02:05:48.142Z,10.70
2019-05-15T02:08:19.161Z,10.70
2019-05-15T02:10:49.375Z,10.70
2019-05-15T02:13:19.201Z,10.60
2019-05-15T02:15:48.478Z,10.60
2019-05-15T02:18:19.230Z,10.60
2019-05-15T02:20:49.489Z,10.60
2019-05-15T02:23:19.250Z,10.60
2019-05-15T02:25:48.666Z,10.50
2019-05-15T02:28:18.401Z,10.50
2019-05-15T02:30:50.425Z,10.60
2019-05-15T02:33:19.061Z,10.60
2019-05-15T02:35:50.082Z,10.50
2019-05-15T02:38:20.125Z,10.40
2019-05-15T02:40:49.953Z,10.40
2019-05-15T02:43:19.483Z,10.40
2019-05-15T02:45:50.776Z,10.40
2019-05-15T02:48:20.236Z,10.30
2019-05-15T02:50:50.308Z,10.30
2019-05-15T02:53:19.790Z,10.20
2019-05-15T02:55:49.656Z,10.20
2019-05-15T02:58:21.113Z,10.20
2019-05-15T03:00:53.418Z,10.20
2019-05-15T03:03:21.259Z,10.20
2019-05-15T03:05:50.808Z,10.10
2019-05-15T03:08:20.049Z,10.10
2019-05-15T03:10:49.885Z,10.10
2019-05-15T03:13:19.508Z,10.00
2019-05-15T03:15:49.160Z,10.00
2019-05-15T03:18:19.439Z,9.90
2019-05-15T03:20:50.121Z,9.90
2019-05-15T03:23:20.053Z,9.90
2019-05-15T03:25:49.654Z,9.80
2019-05-15T03:28:19.303Z,9.80
2019-05-15T03:31:15.496Z,9.80
2019-05-15T03:33:27.409Z,9.70
2019-05-15T03:35:54.183Z,9.70
2019-05-15T03:38:22.181Z,9.60
2019-05-15T03:40:51.484Z,9.60
2019-05-15T03:43:21.474Z,9.70
2019-05-15T03:45:50.659Z,9.60
2019-05-15T03:48:19.957Z,9.60
2019-05-15T03:50:49.400Z,9.50
2019-05-15T03:53:19.428Z,9.60
2019-05-15T03:55:49.137Z,9.50
2019-05-15T03:58:21.483Z,9.50
2019-05-15T04:00:50.009Z,9.50
2019-05-15T04:03:20.173Z,9.50
2019-05-15T04:05:49.888Z,9.40
2019-05-15T04:08:19.611Z,9.40
2019-05-15T04:10:49.023Z,9.40
2019-05-15T04:13:19.508Z,9.40
2019-05-15T04:15:50.255Z,9.40
2019-05-15T04:18:20.234Z,9.40
2019-05-15T04:20:50.260Z,9.40
2019-05-15T04:23:23.229Z,9.40
2019-05-15T04:25:53.762Z,9.40
2019-05-15T04:28:23.210Z,9.40
2019-05-15T04:30:52.607Z,9.40
2019-05-15T04:33:21.807Z,9.40
2019-05-15T04:35:50.934Z,9.50
2019-05-15T04:38:20.598Z,9.50
2019-05-15T04:40:50.226Z,9.50
2019-05-15T04:43:19.745Z,9.50
2019-05-15T04:45:49.763Z,9.60
2019-05-15T04:48:20.266Z,9.60
2019-05-15T04:50:49.896Z,9.60
2019-05-15T04:53:19.534Z,9.60
2019-05-15T04:55:50.024Z,9.70
2019-05-15T04:58:20.919Z,9.70
2019-05-15T05:00:52.073Z,9.70
2019-05-15T05:03:29.069Z,9.70
2019-05-15T05:05:53.127Z,9.80
2019-05-15T05:08:24.228Z,9.80
2019-05-15T05:10:53.662Z,9.90
2019-05-15T05:13:22.863Z,9.90
2019-05-15T05:15:52.192Z,10.00
2019-05-15T05:18:21.849Z,10.00
2019-05-15T05:20:51.041Z,10.10
2019-05-15T05:23:20.852Z,10.10
2019-05-15T05:25:50.391Z,10.20
2019-05-15T05:28:19.803Z,10.20
2019-05-15T05:30:49.025Z,10.30
2019-05-15T05:33:18.658Z,10.30
2019-05-15T05:35:48.781Z,10.30
2019-05-15T05:38:19.425Z,10.40
2019-05-15T05:40:49.841Z,10.50
2019-05-15T05:43:19.588Z,10.50
2019-05-15T05:45:49.547Z,10.60
2019-05-15T05:48:19.290Z,10.70
2019-05-15T05:50:50.217Z,10.80
2019-05-15T05:53:21.195Z,10.80
2019-05-15T05:55:53.300Z,10.90
2019-05-15T05:58:21.474Z,11.00
2019-05-15T06:00:52.335Z,11.00
2019-05-15T06:03:21.876Z,11.10
2019-05-15T06:05:51.076Z,11.20
2019-05-15T06:08:20.393Z,11.30
2019-05-15T06:10:50.044Z,11.40
2019-05-15T06:13:19.830Z,11.40
2019-05-15T06:15:49.291Z,11.50
2019-05-15T06:18:19.498Z,11.60
2019-05-15T06:20:49.926Z,11.60
2019-05-15T06:23:23.658Z,11.70
2019-05-15T06:25:50.464Z,11.80
2019-05-15T06:28:20.435Z,11.80
2019-05-15T06:30:49.929Z,11.90
2019-05-15T06:33:19.128Z,12.00
2019-05-15T06:35:49.276Z,12.00
2019-05-15T06:38:19.671Z,12.10
2019-05-15T06:40:49.790Z,12.10
2019-05-15T06:43:19.676Z,12.20
2019-05-15T06:45:49.355Z,12.20
2019-05-15T06:48:18.872Z,12.20
2019-05-15T06:50:48.994Z,12.30
2019-05-15T06:53:19.523Z,12.40
2019-05-15T06:55:49.144Z,12.40
2019-05-15T06:58:19.587Z,12.50
2019-05-15T07:00:49.762Z,12.50
2019-05-15T07:03:25.409Z,12.60
2019-05-15T07:05:51.017Z,12.60
2019-05-15T07:08:20.472Z,12.60
2019-05-15T07:10:49.710Z,12.70
2019-05-15T07:13:19.115Z,12.70
2019-05-15T07:15:49.592Z,12.70
2019-05-15T07:18:19.766Z,12.70
2019-05-15T07:20:49.922Z,12.80
2019-05-15T07:23:19.333Z,12.80
2019-05-15T07:25:49.842Z,12.80
2019-05-15T07:28:19.771Z,12.90
2019-05-15T07:30:49.695Z,12.90
2019-05-15T07:33:34.227Z,13.00
2019-05-15T07:35:50.008Z,13.00
2019-05-15T07:38:19.356Z,13.10
2019-05-15T07:40:57.201Z,13.10
2019-05-15T07:43:19.960Z,13.20
2019-05-15T07:45:53.604Z,13.30
2019-05-15T07:48:21.400Z,13.30
2019-05-15T07:50:50.757Z,13.30
2019-05-15T07:53:20.642Z,13.40
2019-05-15T07:55:51.152Z,13.40
2019-05-15T07:58:21.979Z,13.50
2019-05-15T08:00:58.779Z,13.50
2019-05-15T08:03:22.758Z,13.50
2019-05-15T08:06:00.262Z,13.50
2019-05-15T08:08:23.100Z,13.50
2019-05-15T08:10:52.339Z,13.60
2019-05-15T08:13:21.513Z,13.70
2019-05-15T08:15:50.748Z,13.70
2019-05-15T08:18:20.064Z,13.80
2019-05-15T08:20:49.493Z,13.80
2019-05-15T08:23:19.570Z,13.80
2019-05-15T08:25:49.123Z,13.80
2019-05-15T08:28:19.078Z,13.90
2019-05-15T08:30:49.681Z,13.90
2019-05-15T08:33:19.369Z,14.00
2019-05-15T08:35:51.945Z,14.00
2019-05-15T08:38:20.094Z,14.10
2019-05-15T08:40:49.832Z,14.10
2019-05-15T08:43:19.288Z,14.20
2019-05-15T08:45:49.497Z,14.20
2019-05-15T08:48:19.459Z,14.30
2019-05-15T08:50:49.147Z,14.30
2019-05-15T08:53:19.669Z,14.30
2019-05-15T08:55:49.398Z,14.40
2019-05-15T08:58:20.251Z,14.50
2019-05-15T09:00:52.271Z,14.60
2019-05-15T09:03:21.117Z,14.60
2019-05-15T09:05:50.451Z,14.70
2019-05-15T09:08:19.988Z,14.60
2019-05-15T09:10:50.489Z,14.60
2019-05-15T09:13:20.025Z,14.60
2019-05-15T09:16:18.530Z,14.70
2019-05-15T09:18:48.666Z,14.70
2019-05-15T09:21:19.146Z,14.80
2019-05-15T09:23:50.031Z,14.90
2019-05-15T09:26:19.728Z,15.00
2019-05-15T09:28:49.523Z,15.00
2019-05-15T09:31:19.474Z,15.00
2019-05-15T09:33:49.418Z,15.10
2019-05-15T09:36:20.307Z,15.10
2019-05-15T09:38:49.999Z,15.10
2019-05-15T09:41:19.388Z,15.20
2019-05-15T09:43:48.714Z,15.30
2019-05-15T09:46:38.250Z,15.30
2019-05-15T09:49:08.876Z,15.40
2019-05-15T09:51:38.577Z,15.50
2019-05-15T09:54:08.261Z,15.60
2019-05-15T09:56:38.452Z,15.60
2019-05-15T09:59:08.819Z,15.70
2019-05-15T10:01:39.445Z,15.80
2019-05-15T10:04:08.988Z,15.90
2019-05-15T10:06:39.065Z,15.90
2019-05-15T10:09:09.156Z,16.00
2019-05-15T10:11:38.660Z,16.00
2019-05-15T10:14:09.826Z,16.00
2019-05-15T10:16:39.087Z,16.10
2019-05-15T10:19:09.047Z,16.20
2019-05-15T10:21:39.956Z,16.20
2019-05-15T10:24:09.703Z,16.20
2019-05-15T10:26:39.432Z,16.20
2019-05-15T10:29:09.277Z,16.10
2019-05-15T10:31:38.989Z,16.10
2019-05-15T10:34:09.886Z,16.20
2019-05-15T10:36:40.485Z,16.30
2019-05-15T10:39:09.939Z,16.30
2019-05-15T10:41:41.537Z,16.30
2019-05-15T10:44:10.786Z,16.50
2019-05-15T10:46:40.143Z,16.50
2019-05-15T10:49:09.384Z,16.60
2019-05-15T10:51:39.607Z,16.60
2019-05-15T10:54:09.383Z,16.60
2019-05-15T10:56:39.116Z,16.50
2019-05-15T10:59:10.589Z,16.50
2019-05-15T11:01:40.277Z,16.50
2019-05-15T11:04:10.816Z,16.70
2019-05-15T11:06:40.133Z,16.70
2019-05-15T11:09:11.403Z,16.70
2019-05-15T11:11:40.469Z,16.70
2019-05-15T11:14:21.618Z,16.70
2019-05-15T11:16:42.121Z,16.70
2019-05-15T11:19:14.885Z,16.80
2019-05-15T11:21:44.139Z,16.90
2019-05-15T11:24:13.532Z,17.10
2019-05-15T11:26:42.816Z,17.20
2019-05-15T11:29:12.147Z,17.20
2019-05-15T11:31:41.459Z,17.20
2019-05-15T11:34:10.869Z,17.30
2019-05-15T11:36:40.146Z,17.30
2019-05-15T11:39:09.287Z,17.40
2019-05-15T11:41:38.824Z,17.50
2019-05-15T11:44:08.468Z,17.60
2019-05-15T11:46:39.148Z,17.60
2019-05-15T11:49:09.567Z,17.70
2019-05-15T11:51:39.033Z,17.70
2019-05-15T11:54:08.464Z,17.80
2019-05-15T11:56:39.191Z,17.80
2019-05-15T11:59:30.007Z,17.90
2019-05-15T12:01:58.860Z,18.10
2019-05-15T12:04:34.048Z,18.20
2019-05-15T12:07:02.751Z,18.30
2019-05-15T12:09:32.349Z,18.30
2019-05-15T12:12:01.460Z,18.30
2019-05-15T12:14:30.833Z,18.20
2019-05-15T12:17:10.627Z,18.10
2019-05-15T12:19:31.859Z,18.10
2019-05-15T12:22:01.092Z,18.00
2019-05-15T12:24:35.286Z,18.00
2019-05-15T12:27:13.651Z,18.00
2019-05-15T12:29:32.971Z,18.00
2019-05-15T12:32:21.993Z,18.10
2019-05-15T12:34:33.726Z,18.10
2019-05-15T12:37:03.358Z,18.00
2019-05-15T12:39:32.844Z,18.00
2019-05-15T12:59:58.919Z,18.20
2019-05-15T13:02:28.264Z,18.30
2019-05-15T13:04:57.814Z,18.50
2019-05-15T13:07:28.531Z,18.50
2019-05-15T13:12:59.245Z,18.30
2019-05-15T13:15:18.992Z,18.20
2019-05-15T13:17:52.792Z,18.10
2019-05-15T13:20:19.572Z,17.90
2019-05-15T13:23:05.199Z,17.90
2019-05-15T13:25:34.539Z,18.00
2019-05-15T13:28:04.229Z,18.10
2019-05-15T13:30:33.631Z,18.20
2019-05-15T13:33:03.052Z,18.30
2019-05-15T13:35:45.516Z,18.50
2019-05-15T13:38:13.827Z,18.60
2019-05-15T13:40:48.017Z,18.60
2019-05-15T13:43:18.578Z,18.50
2019-05-15T13:45:49.253Z,18.40
2019-05-15T13:48:19.956Z,18.40
2019-05-15T13:50:49.504Z,18.30
2019-05-15T13:53:19.125Z,18.40
2019-05-15T13:56:02.180Z,18.40
2019-05-15T13:58:50.531Z,18.50
2019-05-15T14:01:20.496Z,18.60
2019-05-15T14:03:49.753Z,18.60
2019-05-15T14:06:35.203Z,18.70
2019-05-15T14:09:14.683Z,18.70
2019-05-15T14:11:44.023Z,18.60
2019-05-15T14:14:33.323Z,18.50
2019-05-15T14:17:03.011Z,18.40
2019-05-15T14:19:42.966Z,18.40
2019-05-15T14:22:35.505Z,18.50
2019-05-15T14:25:04.964Z,18.60
2019-05-15T14:27:34.328Z,18.80
2019-05-15T14:30:14.206Z,18.80
2019-05-15T14:32:43.621Z,18.80
2019-05-15T14:35:18.118Z,18.70
2019-05-15T14:38:02.748Z,18.70
2019-05-15T14:40:20.252Z,18.80
2019-05-15T14:42:49.452Z,18.90
2019-05-15T14:45:20.747Z,18.90
2019-05-15T14:47:50.373Z,18.90
2019-05-15T14:50:20.208Z,19.00
2019-05-15T14:52:49.941Z,18.90
2019-05-15T14:55:22.696Z,18.90
2019-05-15T14:57:52.429Z,18.90
2019-05-15T15:00:22.084Z,18.90
2019-05-15T15:03:12.256Z,18.80
2019-05-15T15:05:41.731Z,18.90
2019-05-15T15:08:24.051Z,18.90
2019-05-15T15:10:44.605Z,18.90
2019-05-15T15:13:18.269Z,18.80
2019-05-15T15:15:48.577Z,18.80
2019-05-15T15:18:19.023Z,18.80
2019-05-15T15:20:48.539Z,18.90
2019-05-15T15:23:17.739Z,18.80
2019-05-15T15:25:48.440Z,18.90
2019-05-15T15:28:18.938Z,18.90
2019-05-15T15:30:48.684Z,19.00
2019-05-15T15:33:18.020Z,19.00
2019-05-15T15:35:48.650Z,19.00
2019-05-15T15:38:27.119Z,19.00
2019-05-15T15:40:49.170Z,19.10
2019-05-15T15:43:18.529Z,19.10
2019-05-15T15:45:53.578Z,19.10
2019-05-15T15:48:45.118Z,19.00
2019-05-15T15:51:14.407Z,19.00
2019-05-15T15:53:47.994Z,19.00
2019-05-15T15:56:18.404Z,19.00
2019-05-15T15:58:48.951Z,19.00
2019-05-15T16:01:23.909Z,18.90
2019-05-15T16:03:52.572Z,18.90
2019-05-15T16:06:22.114Z,18.90
2019-05-15T16:08:59.559Z,18.90
2019-05-15T16:11:28.644Z,18.90
2019-05-15T16:13:58.503Z,18.80
2019-05-15T16:16:28.595Z,18.80
2019-05-15T16:18:57.861Z,18.80
2019-05-15T16:21:28.762Z,18.70
2019-05-15T16:23:58.339Z,18.80
2019-05-15T16:26:29.072Z,18.70
2019-05-15T16:29:01.733Z,18.70
2019-05-15T16:31:29.864Z,18.60
2019-05-15T16:34:02.157Z,18.60
2019-05-15T16:36:31.362Z,18.50
2019-05-15T16:39:20.052Z,18.40
2019-05-15T16:41:49.168Z,18.30
2019-05-15T16:44:18.575Z,18.20
2019-05-15T16:46:48.284Z,18.10
2019-05-15T16:49:19.728Z,18.10
2019-05-15T16:51:49.324Z,18.10
2019-05-15T16:54:19.230Z,18.10
2019-05-15T16:56:49.022Z,18.10
2019-05-15T16:59:22.040Z,18.00
2019-05-15T17:01:51.557Z,18.00
2019-05-15T17:04:28.998Z,18.00
2019-05-15T17:07:28.974Z,18.00
2019-05-15T17:09:58.671Z,18.00
2019-05-15T17:12:27.949Z,18.00
2019-05-15T17:14:58.272Z,18.00
2019-05-15T17:17:27.802Z,17.90
2019-05-15T17:19:57.961Z,17.90
2019-05-15T17:22:28.873Z,17.90
2019-05-15T17:24:58.422Z,17.80
2019-05-15T17:27:28.891Z,17.80
2019-05-15T17:29:58.524Z,17.70
2019-05-15T17:32:29.102Z,17.70
2019-05-15T17:34:58.917Z,17.60
2019-05-15T17:37:28.837Z,17.50
2019-05-15T17:39:58.891Z,17.40
2019-05-15T17:42:28.956Z,17.30
2019-05-15T17:44:58.387Z,17.30
2019-05-15T17:47:28.598Z,17.20
2019-05-15T17:49:58.898Z,17.20
2019-05-15T17:52:28.974Z,17.10
2019-05-15T17:54:59.261Z,17.10
2019-05-15T17:57:28.837Z,17.00
2019-05-15T17:59:59.035Z,17.00
2019-05-15T18:02:28.723Z,16.90
2019-05-15T18:05:08.076Z,16.80
2019-05-15T18:07:39.051Z,16.80
2019-05-15T18:10:08.788Z,16.70
2019-05-15T18:12:38.850Z,16.70
2019-05-15T18:15:09.430Z,16.60
2019-05-15T18:17:39.379Z,16.60
2019-05-15T18:20:10.408Z,16.50
2019-05-15T18:22:39.887Z,16.50
2019-05-15T18:25:09.373Z,16.50
2019-05-15T18:27:39.105Z,16.50
2019-05-15T18:30:09.430Z,16.50
2019-05-15T18:32:39.349Z,16.50
2019-05-15T18:35:08.970Z,16.40
2019-05-15T18:37:39.303Z,16.40
2019-05-15T18:40:10.263Z,16.30
2019-05-15T18:42:39.727Z,16.30
2019-05-15T18:45:09.717Z,16.30
2019-05-15T18:47:39.207Z,16.30
2019-05-15T18:50:13.062Z,16.30
2019-05-15T18:52:39.838Z,16.30
2019-05-15T18:55:09.215Z,16.20
2019-05-15T18:57:38.794Z,16.20
2019-05-15T19:00:09.621Z,16.20
2019-05-15T19:02:39.519Z,16.20
2019-05-15T19:05:09.686Z,16.20
2019-05-15T19:07:39.257Z,16.10
2019-05-15T19:10:08.791Z,16.10
2019-05-15T19:12:38.362Z,16.10
2019-05-15T19:15:09.570Z,16.10
2019-05-15T19:17:39.173Z,16.00
2019-05-15T19:20:09.155Z,16.00
2019-05-15T19:22:41.040Z,16.00
2019-05-15T19:25:09.880Z,16.00
2019-05-15T19:27:39.571Z,15.90
2019-05-15T19:30:09.571Z,15.90
2019-05-15T19:32:39.097Z,15.90
2019-05-15T19:35:09.247Z,15.90
2019-05-15T19:37:38.768Z,15.90
2019-05-15T19:40:08.362Z,15.90
2019-05-15T19:42:38.438Z,15.90
2019-05-15T19:45:10.905Z,15.90
2019-05-15T19:47:40.065Z,15.90
2019-05-15T19:50:09.607Z,15.80
2019-05-15T19:52:39.001Z,15.80
2019-05-15T19:55:09.078Z,15.80
2019-05-15T19:57:38.939Z,15.80
2019-05-15T20:00:12.138Z,15.70
2019-05-15T20:02:41.337Z,15.70
2019-05-15T20:05:10.610Z,15.70
2019-05-15T20:07:39.999Z,15.70
2019-05-15T20:10:10.742Z,15.70
2019-05-15T20:12:40.406Z,15.60
2019-05-15T20:15:09.847Z,15.60
2019-05-15T20:17:39.262Z,15.60
2019-05-15T20:20:09.150Z,15.60
2019-05-15T20:22:40.390Z,15.50
2019-05-15T20:25:09.968Z,15.50
2019-05-15T20:27:39.451Z,15.50
2019-05-15T20:30:09.002Z,15.50
2019-05-15T20:32:38.834Z,15.40
2019-05-15T20:35:09.010Z,15.40
2019-05-15T20:37:39.001Z,15.40
2019-05-15T20:40:09.614Z,15.30
2019-05-15T20:42:38.863Z,15.30
2019-05-15T20:45:12.147Z,15.30
2019-05-15T20:47:39.809Z,15.20
2019-05-15T20:50:09.312Z,15.20
2019-05-15T20:52:39.672Z,15.20
2019-05-15T20:55:09.216Z,15.20
2019-05-15T20:57:40.896Z,15.10
2019-05-15T21:00:11.117Z,15.10
2019-05-15T21:02:40.275Z,15.00
2019-05-15T21:05:09.637Z,15.00
2019-05-15T21:07:43.141Z,14.90
2019-05-15T21:10:10.813Z,14.90
2019-05-15T21:12:41.391Z,14.90
2019-05-15T21:15:11.801Z,14.80
2019-05-15T21:17:42.829Z,14.80
2019-05-15T21:20:11.924Z,14.80
2019-05-15T21:22:40.969Z,14.70
2019-05-15T21:25:11.160Z,14.70
2019-05-15T21:27:43.092Z,14.70
2019-05-15T21:30:12.969Z,14.70
2019-05-15T21:32:42.127Z,14.60
2019-05-15T21:35:11.812Z,14.70
2019-05-15T21:37:40.926Z,14.70
2019-05-15T21:40:10.377Z,14.70
2019-05-15T21:42:41.763Z,14.70
2019-05-15T21:45:14.763Z,14.70
2019-05-15T21:47:41.891Z,14.60
2019-05-15T21:50:11.233Z,14.60
2019-05-15T21:52:40.407Z,14.60
2019-05-15T21:55:09.878Z,14.60
2019-05-15T21:57:41.795Z,14.50
2019-05-15T22:00:18.047Z,14.50
2019-05-15T22:02:49.416Z,14.50
2019-05-15T22:05:19.130Z,14.50
2019-05-15T22:07:51.199Z,14.40
2019-05-15T22:10:20.427Z,14.40
2019-05-15T22:12:49.539Z,14.50
2019-05-15T22:15:19.551Z,14.40
2019-05-15T22:17:49.561Z,14.40
2019-05-15T22:20:19.053Z,14.40
2019-05-15T22:22:50.721Z,14.30
2019-05-15T22:25:19.321Z,14.40
2019-05-15T22:27:49.635Z,14.30
2019-05-15T22:30:20.486Z,14.30
2019-05-15T22:32:49.839Z,14.30
2019-05-15T22:35:19.135Z,14.30
2019-05-15T22:37:49.255Z,14.20
2019-05-15T22:40:19.179Z,14.20
2019-05-15T22:42:48.916Z,14.10
2019-05-15T22:45:18.909Z,14.10
2019-05-15T22:47:48.539Z,14.10
2019-05-15T22:50:19.077Z,14.00
2019-05-15T22:52:49.371Z,14.00
2019-05-15T22:55:18.880Z,14.00
2019-05-15T22:57:48.394Z,13.90
2019-05-15T23:00:19.436Z,13.90
2019-05-15T23:02:49.179Z,13.90
2019-05-15T23:05:27.881Z,13.80
2019-05-15T23:07:49.776Z,13.80
2019-05-15T23:10:19.036Z,13.80
2019-05-15T23:12:48.773Z,13.80
2019-05-15T23:15:18.865Z,13.70
2019-05-15T23:17:48.821Z,13.70
2019-05-15T23:20:18.304Z,13.60
2019-05-15T23:22:47.493Z,13.60
2019-05-15T23:25:18.208Z,13.60
2019-05-15T23:27:48.414Z,13.50
2019-05-15T23:30:18.601Z,13.50
2019-05-15T23:32:48.806Z,13.50
2019-05-15T23:35:18.391Z,13.50
2019-05-15T23:37:48.553Z,13.40
2019-05-15T23:40:18.135Z,13.40
2019-05-15T23:42:49.108Z,13.30
2019-05-15T23:45:18.342Z,13.30
2019-05-15T23:47:48.591Z,13.30
2019-05-15T23:50:17.860Z,13.30
2019-05-15T23:52:48.725Z,13.20
2019-05-15T23:55:18.927Z,13.20
2019-05-15T23:57:49.159Z,13.20
